createdAt,value
2022-11-27T00:01:36.628Z,10.95
2022-11-27T00:04:05.940Z,10.93
2022-11-27T00:06:34.890Z,10.70
2022-11-27T00:09:10.477Z,10.90
2022-11-27T00:11:41.269Z,9.93
2022-11-27T00:14:13.645Z,10.10
2022-11-27T00:16:41.233Z,10.60
2022-11-27T00:19:09.590Z,10.43
2022-11-27T00:21:37.621Z,10.60
2022-11-27T00:24:08.249Z,10.98
2022-11-27T00:26:38.055Z,10.32
2022-11-27T00:29:07.054Z,11.13
2022-11-27T00:31:37.348Z,9.32
2022-11-27T00:34:08.851Z,9.52
2022-11-27T00:36:37.061Z,10.88
2022-11-27T00:39:05.399Z,11.38
2022-11-27T00:41:33.217Z,9.98
2022-11-27T00:44:00.124Z,9.23
2022-11-27T00:46:31.324Z,10.10
2022-11-27T00:49:03.082Z,9.05
2022-11-27T00:51:31.124Z,9.65
2022-11-27T00:53:58.380Z,10.40
2022-11-27T00:56:30.922Z,10.02
2022-11-27T00:58:58.471Z,11.60
2022-11-27T01:01:32.663Z,10.10
2022-11-27T01:04:02.288Z,9.25
2022-11-27T01:06:30.841Z,9.77
2022-11-27T01:08:59.133Z,8.68
2022-11-27T01:11:31.330Z,10.85
2022-11-27T01:14:06.502Z,9.77
2022-11-27T01:16:35.246Z,8.27
2022-11-27T01:19:03.414Z,9.50
2022-11-27T01:21:34.190Z,8.90
2022-11-27T01:24:04.559Z,8.52
2022-11-27T01:26:32.244Z,9.65
2022-11-27T01:29:00.168Z,9.75
2022-11-27T01:31:33.097Z,8.35
2022-11-27T01:34:12.403Z,9.80
2022-11-27T01:36:39.280Z,9.95
2022-11-27T01:39:06.178Z,9.35
2022-11-27T01:41:41.224Z,9.50
2022-11-27T01:44:27.115Z,9.45
2022-11-27T01:47:13.047Z,8.57
2022-11-27T01:49:56.252Z,9.43
2022-11-27T01:52:37.281Z,8.43
2022-11-27T01:55:28.074Z,9.13
2022-11-27T01:58:17.837Z,9.82
2022-11-27T02:00:44.744Z,9.02
2022-11-27T02:03:11.703Z,10.35
2022-11-27T02:05:38.717Z,10.18
2022-11-27T02:08:14.575Z,10.00
2022-11-27T02:11:08.215Z,9.27
2022-11-27T02:14:06.165Z,9.88
2022-11-27T02:17:09.560Z,8.90
2022-11-27T02:20:01.084Z,9.85
2022-11-27T02:23:33.024Z,8.25
2022-11-27T02:27:05.059Z,9.68
2022-11-27T02:29:36.725Z,8.35
2022-11-27T02:32:24.650Z,10.32
2022-11-27T02:35:08.037Z,10.00
2022-11-27T02:37:53.370Z,7.95
2022-11-27T02:41:04.713Z,9.60
2022-11-27T02:43:44.954Z,10.35
2022-11-27T02:46:14.929Z,10.07
2022-11-27T02:49:02.242Z,8.88
2022-11-27T02:51:39.441Z,9.25
2022-11-27T02:54:17.618Z,9.70
2022-11-27T02:56:49.745Z,9.50
2022-11-27T02:59:21.785Z,9.93
2022-11-27T03:02:00.572Z,8.48
2022-11-27T03:04:36.757Z,9.25
2022-11-27T03:07:18.474Z,8.52
2022-11-27T03:09:57.070Z,8.52
2022-11-27T03:12:24.086Z,9.57
2022-11-27T03:14:50.934Z,9.55
2022-11-27T03:17:48.317Z,9.20
2022-11-27T03:20:30.610Z,8.88
2022-11-27T03:22:57.944Z,8.20
2022-11-27T03:25:25.417Z,7.70
2022-11-27T03:28:08.394Z,8.25
2022-11-27T03:30:35.246Z,7.53
2022-11-27T03:33:02.978Z,8.18
2022-11-27T03:35:31.712Z,7.88
2022-11-27T03:37:58.682Z,8.88
2022-11-27T03:40:46.286Z,8.68
2022-11-27T03:43:21.423Z,7.78
2022-11-27T03:46:05.713Z,8.80
2022-11-27T03:49:02.645Z,8.52
2022-11-27T03:52:20.900Z,7.50
2022-11-27T03:55:12.256Z,8.48
2022-11-27T03:58:22.964Z,8.57
2022-11-27T04:00:53.626Z,9.55
2022-11-27T04:03:28.736Z,8.68
2022-11-27T04:05:57.008Z,11.40
2022-11-27T04:08:24.752Z,10.55
2022-11-27T04:10:51.607Z,10.85
2022-11-27T04:13:18.551Z,10.55
2022-11-27T04:15:45.708Z,13.00
2022-11-27T04:18:12.628Z,10.40
2022-11-27T04:20:39.587Z,10.23
2022-11-27T04:23:06.504Z,8.95
2022-11-27T04:25:33.436Z,10.35
2022-11-27T04:28:00.316Z,10.68
2022-11-27T04:30:27.213Z,10.48
2022-11-27T04:32:54.140Z,10.07
2022-11-27T04:35:21.020Z,10.45
2022-11-27T04:37:47.909Z,10.45
2022-11-27T04:40:14.923Z,9.95
2022-11-27T04:42:41.859Z,11.13
2022-11-27T04:45:09.567Z,9.77
2022-11-27T04:47:36.471Z,9.18
2022-11-27T04:50:03.975Z,11.15
2022-11-27T04:52:30.827Z,10.00
2022-11-27T04:55:00.315Z,9.80
2022-11-27T04:57:28.001Z,10.52
2022-11-27T04:59:55.064Z,9.13
2022-11-27T05:02:22.244Z,9.50
2022-11-27T05:04:49.164Z,8.50
2022-11-27T05:07:16.052Z,9.23
2022-11-27T05:09:43.091Z,9.15
2022-11-27T05:12:10.279Z,9.02
2022-11-27T05:14:37.159Z,8.50
2022-11-27T05:17:04.300Z,8.50
2022-11-27T05:19:32.572Z,9.52
2022-11-27T05:21:59.756Z,8.52
2022-11-27T05:24:29.160Z,7.85
2022-11-27T05:26:56.966Z,7.53
2022-11-27T05:29:25.656Z,8.02
2022-11-27T05:31:53.472Z,8.95
2022-11-27T05:34:21.183Z,9.35
2022-11-27T05:36:48.320Z,9.43
2022-11-27T05:39:15.572Z,9.35
2022-11-27T05:41:44.042Z,9.60
2022-11-27T05:44:14.760Z,8.95
2022-11-27T05:46:46.136Z,8.48
2022-11-27T05:49:16.508Z,8.90
2022-11-27T05:51:49.361Z,8.98
2022-11-27T05:54:17.929Z,8.05
2022-11-27T05:56:44.793Z,7.85
2022-11-27T05:59:12.458Z,9.00
2022-11-27T06:01:39.507Z,8.15
2022-11-27T06:04:06.601Z,8.38
2022-11-27T06:06:33.591Z,8.45
2022-11-27T06:09:00.909Z,8.13
2022-11-27T06:11:27.856Z,8.32
2022-11-27T06:13:54.733Z,8.57
2022-11-27T06:16:24.797Z,9.63
2022-11-27T06:18:55.690Z,8.57
2022-11-27T06:21:24.491Z,8.77
2022-11-27T06:23:56.017Z,10.77
2022-11-27T06:26:31.870Z,9.20
2022-11-27T06:29:01.133Z,7.38
2022-11-27T06:31:32.332Z,9.43
2022-11-27T06:34:00.256Z,10.88
2022-11-27T06:36:35.708Z,10.05
2022-11-27T06:39:06.248Z,9.63
2022-11-27T06:41:33.714Z,10.45
2022-11-27T06:44:02.196Z,9.60
2022-11-27T06:46:30.138Z,12.18
2022-11-27T06:48:58.812Z,11.07
2022-11-27T06:51:30.556Z,10.23
2022-11-27T06:54:01.675Z,11.38
2022-11-27T06:56:31.730Z,10.95
2022-11-27T06:59:01.367Z,10.80
2022-11-27T07:01:30.994Z,10.32
2022-11-27T07:03:58.846Z,10.57
2022-11-27T07:06:27.951Z,10.55
2022-11-27T07:08:56.056Z,10.35
2022-11-27T07:11:29.922Z,10.95
2022-11-27T07:14:02.907Z,11.27
2022-11-27T07:16:35.314Z,10.55
2022-11-27T07:19:07.948Z,11.40
2022-11-27T07:21:37.991Z,8.25
2022-11-27T07:24:05.368Z,9.75
2022-11-27T07:26:32.683Z,11.13
2022-11-27T07:28:59.580Z,11.07
2022-11-27T07:31:30.376Z,9.15
2022-11-27T07:33:58.611Z,11.13
2022-11-27T07:36:30.535Z,10.30
2022-11-27T07:38:58.246Z,9.27
2022-11-27T07:41:30.489Z,9.80
2022-11-27T07:43:59.275Z,10.00
2022-11-27T07:46:26.687Z,9.98
2022-11-27T07:48:53.552Z,9.07
2022-11-27T07:51:22.639Z,9.88
2022-11-27T07:53:51.813Z,9.18
2022-11-27T07:56:20.199Z,10.77
2022-11-27T07:58:47.851Z,9.63
2022-11-27T08:01:19.506Z,10.68
2022-11-27T08:03:46.980Z,9.93
2022-11-27T08:06:21.731Z,10.45
2022-11-27T08:08:49.956Z,11.68
2022-11-27T08:11:29.584Z,10.50
2022-11-27T08:14:01.078Z,8.85
2022-11-27T08:16:29.569Z,9.65
2022-11-27T08:18:57.393Z,9.13
2022-11-27T08:21:27.179Z,9.73
2022-11-27T08:23:54.432Z,9.10
2022-11-27T08:26:21.342Z,9.55
2022-11-27T08:28:48.574Z,9.90
2022-11-27T08:31:15.600Z,8.60
2022-11-27T08:33:42.514Z,9.98
2022-11-27T08:36:16.382Z,10.90
2022-11-27T08:38:45.812Z,9.23
2022-11-27T08:41:12.824Z,8.00
2022-11-27T08:43:39.772Z,8.88
2022-11-27T08:46:07.873Z,7.32
2022-11-27T08:48:35.625Z,9.27
2022-11-27T08:51:14.477Z,7.47
2022-11-27T08:53:44.290Z,9.55
2022-11-27T08:56:24.893Z,8.00
2022-11-27T08:58:52.680Z,8.23
2022-11-27T09:03:36.708Z,8.80
2022-11-27T09:06:10.798Z,9.07
2022-11-27T09:08:40.809Z,9.13
2022-11-27T09:11:10.033Z,7.97
2022-11-27T09:13:39.118Z,9.38
2022-11-27T09:16:11.333Z,9.43
2022-11-27T09:18:39.013Z,9.65
2022-11-27T09:21:11.245Z,9.38
2022-11-27T09:23:39.631Z,9.55
2022-11-27T09:26:14.725Z,9.23
2022-11-27T09:28:43.894Z,8.60
2022-11-27T09:31:17.882Z,9.00
2022-11-27T09:33:45.930Z,8.38
2022-11-27T09:36:22.890Z,7.93
2022-11-27T09:38:51.171Z,8.07
2022-11-27T09:41:59.085Z,7.75
2022-11-27T09:44:42.758Z,9.27
2022-11-27T09:47:39.819Z,8.23
2022-11-27T09:50:18.292Z,8.45
2022-11-27T09:53:21.623Z,8.38
2022-11-27T09:55:56.446Z,8.20
2022-11-27T09:58:57.272Z,7.95
2022-11-27T10:01:41.935Z,7.60
2022-11-27T10:04:18.558Z,8.90
2022-11-27T10:07:34.129Z,8.25
2022-11-27T10:10:34.357Z,7.22
2022-11-27T10:13:40.298Z,8.25
2022-11-27T10:16:44.334Z,7.80
2022-11-27T10:19:43.823Z,8.02
2022-11-27T10:22:30.586Z,7.03
2022-11-27T10:25:24.660Z,8.23
2022-11-27T10:28:38.643Z,8.32
2022-11-27T10:31:39.156Z,8.73
2022-11-27T10:34:45.779Z,9.00
2022-11-27T10:37:23.743Z,8.82
2022-11-27T10:40:14.405Z,9.52
2022-11-27T10:42:59.399Z,8.10
2022-11-27T10:45:57.617Z,9.13
2022-11-27T10:48:25.119Z,8.32
2022-11-27T10:50:52.087Z,8.95
2022-11-27T10:53:37.129Z,8.53
2022-11-27T10:56:58.592Z,8.40
2022-11-27T10:59:39.707Z,8.85
2022-11-27T11:02:26.137Z,10.90
2022-11-27T11:05:16.311Z,9.57
2022-11-27T11:07:39.876Z,9.60
2022-11-27T11:10:38.167Z,9.40
2022-11-27T11:13:31.989Z,9.45
2022-11-27T11:16:23.368Z,10.30
2022-11-27T11:18:55.562Z,10.95
2022-11-27T11:21:29.673Z,10.40
2022-11-27T11:24:12.678Z,11.00
2022-11-27T11:26:50.992Z,9.53
2022-11-27T11:29:47.300Z,10.20
2022-11-27T11:32:33.305Z,11.90
2022-11-27T11:35:23.208Z,10.77
2022-11-27T11:37:52.456Z,13.17
2022-11-27T11:40:30.057Z,9.77
2022-11-27T11:43:02.360Z,10.37
2022-11-27T11:45:34.730Z,10.90
2022-11-27T11:48:26.229Z,10.67
2022-11-27T11:51:18.195Z,9.60
2022-11-27T11:54:18.301Z,10.95
2022-11-27T11:56:52.441Z,10.15
2022-11-27T11:59:28.789Z,9.93
2022-11-27T12:02:40.547Z,11.13
2022-11-27T12:05:51.422Z,11.50
2022-11-27T12:09:08.926Z,11.43
2022-11-27T12:12:16.949Z,11.50
2022-11-27T12:15:01.905Z,11.67
2022-11-27T12:17:39.441Z,11.73
2022-11-27T12:20:42.962Z,11.80
2022-11-27T12:24:18.997Z,12.60
2022-11-27T12:27:48.306Z,12.80
2022-11-27T12:30:22.826Z,13.03
2022-11-27T12:33:22.449Z,12.70
2022-11-27T12:36:33.794Z,11.63
2022-11-27T12:39:26.266Z,12.57
2022-11-27T12:42:33.298Z,11.63
2022-11-27T12:45:17.552Z,12.02
2022-11-27T12:48:12.100Z,10.60
2022-11-27T12:50:57.034Z,11.23
2022-11-27T12:53:39.134Z,9.80
2022-11-27T12:56:42.699Z,10.27
2022-11-27T12:59:46.034Z,11.40
2022-11-27T13:02:56.243Z,10.83
2022-11-27T13:05:32.282Z,9.70
2022-11-27T13:08:15.926Z,9.73
2022-11-27T13:11:13.611Z,10.77
2022-11-27T13:14:16.731Z,11.07
2022-11-27T13:16:56.745Z,10.90
2022-11-27T13:19:48.396Z,10.83
2022-11-27T13:22:28.454Z,9.33
2022-11-27T13:25:00.918Z,9.53
2022-11-27T13:27:35.262Z,10.10
2022-11-27T13:30:27.439Z,8.65
2022-11-27T13:33:01.563Z,8.50
2022-11-27T13:35:42.484Z,8.90
2022-11-27T13:38:23.055Z,9.27
2022-11-27T13:40:55.848Z,7.60
2022-11-27T13:43:45.161Z,8.57
2022-11-27T13:46:24.922Z,8.90
2022-11-27T13:49:03.482Z,9.43
2022-11-27T13:51:36.559Z,8.23
2022-11-27T13:54:13.932Z,8.05
2022-11-27T13:56:42.271Z,8.37
2022-11-27T13:59:24.295Z,9.50
2022-11-27T14:02:01.544Z,8.80
2022-11-27T14:04:31.600Z,8.90
2022-11-27T14:07:11.163Z,8.80
2022-11-27T14:09:55.527Z,7.70
2022-11-27T14:12:31.636Z,7.65
2022-11-27T14:15:16.904Z,7.47
2022-11-27T14:17:53.673Z,8.87
2022-11-27T14:20:32.412Z,9.07
2022-11-27T14:23:11.915Z,7.97
2022-11-27T14:25:44.160Z,7.87
2022-11-27T14:28:26.138Z,7.80
2022-11-27T14:31:00.916Z,8.70
2022-11-27T14:33:47.468Z,8.03
2022-11-27T14:36:31.664Z,11.23
2022-11-27T14:38:59.232Z,8.45
2022-11-27T14:41:28.741Z,8.97
2022-11-27T14:44:14.322Z,8.37
2022-11-27T14:46:41.959Z,7.50
2022-11-27T14:49:21.069Z,8.43
2022-11-27T14:51:51.087Z,7.90
2022-11-27T14:54:34.345Z,8.17
2022-11-27T14:57:02.634Z,8.37
2022-11-27T14:59:29.578Z,8.47
2022-11-27T15:02:29.115Z,9.07
2022-11-27T15:05:05.957Z,8.90
2022-11-27T15:07:45.405Z,7.63
2022-11-27T15:10:41.890Z,8.00
2022-11-27T15:13:31.041Z,10.18
2022-11-27T15:16:07.072Z,7.07
2022-11-27T15:18:38.149Z,7.63
2022-11-27T15:21:20.346Z,9.00
2022-11-27T15:23:50.154Z,9.27
2022-11-27T15:26:40.447Z,10.00
2022-11-27T15:29:38.123Z,8.40
2022-11-27T15:32:26.634Z,8.15
2022-11-27T15:34:54.672Z,8.40
2022-11-27T15:37:28.598Z,9.48
2022-11-27T15:39:58.612Z,8.55
2022-11-27T15:42:27.342Z,8.52
2022-11-27T15:44:57.827Z,9.82
2022-11-27T15:47:36.168Z,9.80
2022-11-27T15:50:06.914Z,8.80
2022-11-27T15:52:33.990Z,8.80
2022-11-27T15:55:00.884Z,9.50
2022-11-27T15:57:27.797Z,8.90
2022-11-27T15:59:54.695Z,10.40
2022-11-27T16:02:23.164Z,8.95
2022-11-27T16:04:50.942Z,8.95
2022-11-27T16:07:17.869Z,10.65
2022-11-27T16:09:44.803Z,9.15
2022-11-27T16:12:11.835Z,10.13
2022-11-27T16:14:39.168Z,10.60
2022-11-27T16:17:06.323Z,9.10
2022-11-27T16:19:33.195Z,8.30
2022-11-27T16:22:01.016Z,9.63
2022-11-27T16:24:27.879Z,11.40
2022-11-27T16:26:54.787Z,10.55
2022-11-27T16:29:21.759Z,9.75
2022-11-27T16:31:48.959Z,9.95
2022-11-27T16:34:17.443Z,9.80
2022-11-27T16:36:44.400Z,9.52
2022-11-27T16:39:12.200Z,10.50
2022-11-27T16:41:39.152Z,9.27
2022-11-27T16:44:15.105Z,11.15
2022-11-27T16:46:44.358Z,10.35
2022-11-27T16:49:12.256Z,9.85
2022-11-27T16:51:40.588Z,9.88
2022-11-27T16:54:12.735Z,11.75
2022-11-27T16:56:39.659Z,9.13
2022-11-27T16:59:13.888Z,10.88
2022-11-27T17:01:42.673Z,11.57
2022-11-27T17:04:20.484Z,10.60
2022-11-27T17:06:49.842Z,10.75
2022-11-27T17:09:18.024Z,11.05
2022-11-27T17:11:50.653Z,10.63
2022-11-27T17:14:19.472Z,10.45
2022-11-27T17:16:46.653Z,11.95
2022-11-27T17:19:16.080Z,10.95
2022-11-27T17:21:43.076Z,13.57
2022-11-27T17:24:16.517Z,12.88
2022-11-27T17:26:46.241Z,10.50
2022-11-27T17:29:17.577Z,10.02
2022-11-27T17:31:45.137Z,10.30
2022-11-27T17:34:15.032Z,11.25
2022-11-27T17:36:44.684Z,11.38
2022-11-27T17:39:14.524Z,11.98
2022-11-27T17:41:46.858Z,12.00
2022-11-27T17:44:14.188Z,11.38
2022-11-27T17:46:44.833Z,10.25
2022-11-27T17:49:11.720Z,12.35
2022-11-27T17:51:38.689Z,12.63
2022-11-27T17:54:05.897Z,12.13
2022-11-27T17:56:34.962Z,10.93
2022-11-27T17:59:02.882Z,11.07
2022-11-27T18:01:31.184Z,13.38
2022-11-27T18:04:01.139Z,12.70
2022-11-27T18:06:28.261Z,11.35
2022-11-27T18:08:56.442Z,13.68
2022-11-27T18:11:30.172Z,10.88
2022-11-27T18:13:57.522Z,13.90
2022-11-27T18:16:31.843Z,12.90
2022-11-27T18:19:05.665Z,12.20
2022-11-27T18:21:33.094Z,11.82
2022-11-27T18:24:22.648Z,10.70
2022-11-27T18:29:38.761Z,11.52
2022-11-27T18:32:06.571Z,13.13
2022-11-27T18:34:34.029Z,11.68
2022-11-27T18:37:01.003Z,11.60
2022-11-27T18:39:28.423Z,12.43
2022-11-27T18:41:55.467Z,11.40
2022-11-27T18:44:22.622Z,11.93
2022-11-27T18:46:50.514Z,11.55
2022-11-27T18:49:17.597Z,12.20
2022-11-27T18:51:44.967Z,11.40
2022-11-27T18:54:11.887Z,11.27
2022-11-27T18:56:38.913Z,13.18
2022-11-27T18:59:07.522Z,12.13
2022-11-27T19:01:41.878Z,12.23
2022-11-27T19:04:11.807Z,11.93
2022-11-27T19:06:42.005Z,11.50
2022-11-27T19:09:12.234Z,12.10
2022-11-27T19:11:41.132Z,12.50
2022-11-27T19:14:09.338Z,11.43
2022-11-27T19:16:46.093Z,13.10
2022-11-27T19:22:09.049Z,11.75
2022-11-27T19:24:37.614Z,12.45
2022-11-27T19:27:04.656Z,12.07
2022-11-27T19:29:31.719Z,12.85
2022-11-27T19:32:00.932Z,12.43
2022-11-27T19:34:28.215Z,10.48
2022-11-27T19:36:56.222Z,11.23
2022-11-27T19:39:23.339Z,12.95
2022-11-27T19:41:50.324Z,12.18
2022-11-27T19:44:17.692Z,12.02
2022-11-27T19:46:46.331Z,11.93
2022-11-27T19:49:17.798Z,13.13
2022-11-27T19:51:45.518Z,11.65
2022-11-27T19:54:14.553Z,11.65
2022-11-27T19:56:42.765Z,12.80
2022-11-27T19:59:12.127Z,13.60
2022-11-27T20:01:40.190Z,11.80
2022-11-27T20:04:10.043Z,14.13
2022-11-27T20:06:37.214Z,15.32
2022-11-27T20:09:06.652Z,13.10
2022-11-27T20:11:35.561Z,15.55
2022-11-27T20:14:05.756Z,12.45
2022-11-27T20:16:35.432Z,14.05
2022-11-27T20:19:07.136Z,14.30
2022-11-27T20:21:36.433Z,13.95
2022-11-27T20:24:04.514Z,13.80
2022-11-27T20:26:31.886Z,13.00
2022-11-27T20:28:59.037Z,12.77
2022-11-27T20:31:34.525Z,14.65
2022-11-27T20:34:07.004Z,15.13
2022-11-27T20:36:40.432Z,13.45
2022-11-27T20:39:07.353Z,13.13
2022-11-27T20:41:34.305Z,13.93
2022-11-27T20:44:04.699Z,14.15
2022-11-27T20:46:33.896Z,13.02
2022-11-27T20:49:01.376Z,13.13
2022-11-27T20:51:33.952Z,14.38
2022-11-27T20:54:02.898Z,13.93
2022-11-27T20:56:31.569Z,14.07
2022-11-27T20:58:59.913Z,14.75
2022-11-27T21:01:36.668Z,12.88
2022-11-27T21:04:15.152Z,12.32
2022-11-27T21:06:44.076Z,14.45
2022-11-27T21:09:13.624Z,13.90
2022-11-27T21:11:42.047Z,13.70
2022-11-27T21:14:12.618Z,14.50
2022-11-27T21:16:48.337Z,13.65
2022-11-27T21:19:26.293Z,14.85
2022-11-27T21:21:54.913Z,15.07
2022-11-27T21:24:25.576Z,13.95
2022-11-27T21:26:52.529Z,14.38
2022-11-27T21:29:25.117Z,15.07
2022-11-27T21:31:52.939Z,16.10
2022-11-27T21:34:19.882Z,16.08
2022-11-27T21:36:46.769Z,15.05
2022-11-27T21:39:20.130Z,14.32
2022-11-27T21:41:51.214Z,13.00
2022-11-27T21:44:18.434Z,15.18
2022-11-27T21:46:46.491Z,16.80
2022-11-27T21:49:16.791Z,13.88
2022-11-27T21:51:43.790Z,15.82
2022-11-27T21:54:14.819Z,12.70
2022-11-27T21:56:41.828Z,14.65
2022-11-27T21:59:13.786Z,16.63
2022-11-27T22:01:40.864Z,16.67
2022-11-27T22:04:08.066Z,16.98
2022-11-27T22:06:43.047Z,16.38
2022-11-27T22:09:15.043Z,14.80
2022-11-27T22:11:44.386Z,14.50
2022-11-27T22:14:14.046Z,15.88
2022-11-27T22:16:45.306Z,16.52
2022-11-27T22:19:14.526Z,16.27
2022-11-27T22:21:42.438Z,16.67
2022-11-27T22:24:15.123Z,16.17
2022-11-27T22:26:45.746Z,15.98
2022-11-27T22:29:12.659Z,15.73
2022-11-27T22:31:39.570Z,16.50
2022-11-27T22:34:06.470Z,14.90
2022-11-27T22:36:34.940Z,16.48
2022-11-27T22:39:07.041Z,17.05
2022-11-27T22:41:37.455Z,14.05
2022-11-27T22:44:14.271Z,13.82
2022-11-27T22:46:42.588Z,15.27
2022-11-27T22:49:14.778Z,15.40
2022-11-27T22:51:42.439Z,14.30
2022-11-27T22:54:15.033Z,15.27
2022-11-27T22:56:42.187Z,15.13
2022-11-27T23:01:58.421Z,14.13
2022-11-27T23:04:25.409Z,14.93
2022-11-27T23:06:52.292Z,15.57
2022-11-27T23:09:19.451Z,14.48
2022-11-27T23:11:47.845Z,13.75
2022-11-27T23:14:14.789Z,14.18
2022-11-27T23:16:42.374Z,16.05
2022-11-27T23:19:11.440Z,15.02
2022-11-27T23:21:39.592Z,15.50
2022-11-27T23:24:11.197Z,14.00
2022-11-27T23:26:38.261Z,14.38
2022-11-27T23:29:05.360Z,15.65
2022-11-27T23:31:35.706Z,13.77
2022-11-27T23:34:15.939Z,16.20
2022-11-27T23:36:43.193Z,15.80
2022-11-27T23:39:13.557Z,13.93
2022-11-27T23:41:41.176Z,14.48
2022-11-27T23:44:08.176Z,12.95
2022-11-27T23:46:35.181Z,12.75
2022-11-27T23:49:02.068Z,15.05
2022-11-27T23:51:33.032Z,13.63
2022-11-27T23:54:00.978Z,14.70
2022-11-27T23:56:31.914Z,14.05
2022-11-27T23:59:00.042Z,15.65
